White Lake charter Township, MI

6:57 AM EST on March 05, 2015 (GMT -0500)
White Lake, MI | Change Station
CLOSE
Current Station
Personal Weather Station
Location: White Lake Township, MI
Elevation: 1050 ft
Nearby Weather Stations

Elev 1050 ft 42.67 °N, 83.50 °W | Updated 2 minutes ago

Mostly Cloudy
Mostly Cloudy
1.4 °F
Feels Like 1 °F
N
0.0
Wind Variable Wind from NNE
Gusts 3.0 mph

Today
High -- | Low -- °F
--% Chance of Precip.
Yesterday
High -- | Low -- °F
Precip. -- in
7:03 AM 6:28 PM
Full, 100% visible
Pressure 30.35 in
Visibility 10.0 miles
Clouds Few 15000 ft
Mostly Cloudy 25000 ft
Windchill 1 °F
Dew Point -3 °F
Humidity 81%
Rainfall in
Snow Depth Not available.
UV 0 out of 12
Pollen .70 out of 12
Air Quality Not available.
Flu Activity Not available.
METAR KPTK 051053Z 34004KT 10SM FEW150 BKN250 M15/M19 A3029 RMK AO2 SLP277 FIRST AUGMENTED OBS OF THE DAY T11501194 $

More Conditions Fewer Conditions

Pressure 30.35 in
Visibility 10.0 miles
Clouds Few 15000 ft
Mostly Cloudy 25000 ft
Windchill 1 °F
Dew Point -3 °F
Humidity 81%
Rainfall in
Snow Depth Not available.
UV 0 out of 12
Pollen .70 out of 12
Air Quality Not available.
Flu Activity Not available.
METAR KPTK 051053Z 34004KT 10SM FEW150 BKN250 M15/M19 A3029 RMK AO2 SLP277 FIRST AUGMENTED OBS OF THE DAY T11501194 $

More Conditions Fewer Conditions

10-Day Weather Forecast

Almanac

Astronomy

Mar. 05, 2015 Rise Set
Actual Time
Civil Twilight
Nautical Twilight
Astronomical Twilight
Moon
Length of Visible Light
Length of Day
Tomorrow will be .
, % of the Moon is Illuminated

Today's Extremes

State Highs State Lows

Community

WunderPhotos

Upload Photos

1,802,716 photos uploaded!

WunderBlogs® & News

Nearby

Air Quality

  Air Quality AQ Index Pollutant
Not available.

Snow Depth

Station Depth Elevation

Earthquake Activity

City Distance Mag. Time & Date
Minimum magnitude displayed is 2.5.

Coastal Water Temperatures

Place Temperature

Nearby Weather Stations